sensor_id;sensor_type;location;lat;lon;timestamp;temperature;humidity
34574;DHT22;20809;49.594;8.734;2022-12-07T00:01:46;3.20;99.90
34574;DHT22;20809;49.594;8.734;2022-12-07T00:04:49;3.30;99.90
34574;DHT22;20809;49.594;8.734;2022-12-07T00:07:49;3.30;99.90
34574;DHT22;20809;49.594;8.734;2022-12-07T00:10:50;3.30;99.90
34574;DHT22;20809;49.594;8.734;2022-12-07T00:13:52;3.30;99.90
34574;DHT22;20809;49.594;8.734;2022-12-07T00:16:53;3.30;99.90
34574;DHT22;20809;49.594;8.734;2022-12-07T00:19:54;3.30;99.90
34574;DHT22;20809;49.594;8.734;2022-12-07T00:22:55;3.30;99.90
34574;DHT22;20809;49.594;8.734;2022-12-07T00:25:55;3.30;99.90
34574;DHT22;20809;49.594;8.734;2022-12-07T00:29:00;3.30;99.90
34574;DHT22;20809;49.594;8.734;2022-12-07T00:32:00;3.30;99.90
34574;DHT22;20809;49.594;8.734;2022-12-07T00:35:01;3.30;99.90
34574;DHT22;20809;49.594;8.734;2022-12-07T00:38:02;3.30;99.90
34574;DHT22;20809;49.594;8.734;2022-12-07T00:41:12;3.30;99.90
34574;DHT22;20809;49.594;8.734;2022-12-07T00:44:12;3.30;99.90
34574;DHT22;20809;49.594;8.734;2022-12-07T00:47:13;3.30;99.90
34574;DHT22;20809;49.594;8.734;2022-12-07T00:50:14;3.30;99.90
34574;DHT22;20809;49.594;8.734;2022-12-07T00:53:15;3.30;99.90
34574;DHT22;20809;49.594;8.734;2022-12-07T00:56:20;3.30;99.90
34574;DHT22;20809;49.594;8.734;2022-12-07T00:59:20;3.30;99.90
34574;DHT22;20809;49.594;8.734;2022-12-07T01:02:21;3.30;99.90
34574;DHT22;20809;49.594;8.734;2022-12-07T01:05:22;3.20;99.90
34574;DHT22;20809;49.594;8.734;2022-12-07T01:08:24;3.20;99.90
34574;DHT22;20809;49.594;8.734;2022-12-07T01:11:27;3.20;99.90
34574;DHT22;20809;49.594;8.734;2022-12-07T01:14:28;3.20;99.90
34574;DHT22;20809;49.594;8.734;2022-12-07T01:17:29;3.20;99.90
34574;DHT22;20809;49.594;8.734;2022-12-07T01:20:30;3.20;99.90
34574;DHT22;20809;49.594;8.734;2022-12-07T01:23:31;3.20;99.90
34574;DHT22;20809;49.594;8.734;2022-12-07T01:26:32;3.20;99.90
34574;DHT22;20809;49.594;8.734;2022-12-07T01:29:33;3.20;99.90
34574;DHT22;20809;49.594;8.734;2022-12-07T01:32:34;3.20;99.90
34574;DHT22;20809;49.594;8.734;2022-12-07T01:35:34;3.20;99.90
34574;DHT22;20809;49.594;8.734;2022-12-07T01:38:35;3.30;99.90
34574;DHT22;20809;49.594;8.734;2022-12-07T01:41:38;3.20;99.90
34574;DHT22;20809;49.594;8.734;2022-12-07T01:48:25;3.20;99.90
34574;DHT22;20809;49.594;8.734;2022-12-07T01:51:27;3.10;99.90
34574;DHT22;20809;49.594;8.734;2022-12-07T01:54:28;3.10;99.90
34574;DHT22;20809;49.594;8.734;2022-12-07T02:09:34;3.00;99.90
34574;DHT22;20809;49.594;8.734;2022-12-07T02:12:35;3.10;99.90
34574;DHT22;20809;49.594;8.734;2022-12-07T02:29:28;3.00;99.90
34574;DHT22;20809;49.594;8.734;2022-12-07T02:36:17;3.00;99.90
34574;DHT22;20809;49.594;8.734;2022-12-07T02:39:34;3.00;99.90
34574;DHT22;20809;49.594;8.734;2022-12-07T02:42:42;2.90;99.90
34574;DHT22;20809;49.594;8.734;2022-12-07T02:45:44;2.90;99.90
34574;DHT22;20809;49.594;8.734;2022-12-07T02:48:46;2.90;99.90
34574;DHT22;20809;49.594;8.734;2022-12-07T02:51:47;2.90;99.90
34574;DHT22;20809;49.594;8.734;2022-12-07T02:54:48;2.90;99.90
34574;DHT22;20809;49.594;8.734;2022-12-07T02:58:31;2.90;99.90
34574;DHT22;20809;49.594;8.734;2022-12-07T03:07:59;2.90;99.90
34574;DHT22;20809;49.594;8.734;2022-12-07T03:11:07;2.90;99.90
34574;DHT22;20809;49.594;8.734;2022-12-07T03:14:46;2.90;99.90
34574;DHT22;20809;49.594;8.734;2022-12-07T03:17:49;2.90;99.90
34574;DHT22;20809;49.594;8.734;2022-12-07T03:20:53;3.00;99.90
34574;DHT22;20809;49.594;8.734;2022-12-07T03:23:56;3.00;99.90
34574;DHT22;20809;49.594;8.734;2022-12-07T03:27:06;3.10;99.90
34574;DHT22;20809;49.594;8.734;2022-12-07T03:30:17;3.10;99.90
34574;DHT22;20809;49.594;8.734;2022-12-07T03:33:20;3.10;99.90
34574;DHT22;20809;49.594;8.734;2022-12-07T03:36:29;3.20;99.90
34574;DHT22;20809;49.594;8.734;2022-12-07T03:39:39;3.20;99.90
34574;DHT22;20809;49.594;8.734;2022-12-07T03:42:40;3.20;99.90
34574;DHT22;20809;49.594;8.734;2022-12-07T03:45:44;3.20;99.90
34574;DHT22;20809;49.594;8.734;2022-12-07T03:55:44;3.30;99.90
34574;DHT22;20809;49.594;8.734;2022-12-07T03:58:44;3.20;99.90
34574;DHT22;20809;49.594;8.734;2022-12-07T04:01:51;3.30;99.90
34574;DHT22;20809;49.594;8.734;2022-12-07T04:04:52;3.30;99.90
34574;DHT22;20809;49.594;8.734;2022-12-07T04:07:53;3.30;99.90
34574;DHT22;20809;49.594;8.734;2022-12-07T04:10:54;3.30;99.90
34574;DHT22;20809;49.594;8.734;2022-12-07T04:13:54;3.40;99.90
34574;DHT22;20809;49.594;8.734;2022-12-07T04:17:14;3.40;99.90
34574;DHT22;20809;49.594;8.734;2022-12-07T04:20:15;3.40;99.90
34574;DHT22;20809;49.594;8.734;2022-12-07T04:23:15;3.50;99.90
34574;DHT22;20809;49.594;8.734;2022-12-07T04:26:16;3.40;99.90
34574;DHT22;20809;49.594;8.734;2022-12-07T04:29:18;3.40;99.90
34574;DHT22;20809;49.594;8.734;2022-12-07T04:32:19;3.40;99.90
34574;DHT22;20809;49.594;8.734;2022-12-07T04:35:19;3.40;99.90
34574;DHT22;20809;49.594;8.734;2022-12-07T04:38:20;3.50;99.90
34574;DHT22;20809;49.594;8.734;2022-12-07T04:41:21;3.50;99.90
34574;DHT22;20809;49.594;8.734;2022-12-07T04:44:28;3.50;99.90
34574;DHT22;20809;49.594;8.734;2022-12-07T04:47:29;3.30;99.90
34574;DHT22;20809;49.594;8.734;2022-12-07T04:50:30;3.30;99.90
34574;DHT22;20809;49.594;8.734;2022-12-07T04:53:30;3.20;99.90
34574;DHT22;20809;49.594;8.734;2022-12-07T04:56:31;3.20;99.90
34574;DHT22;20809;49.594;8.734;2022-12-07T04:59:32;3.20;99.90
34574;DHT22;20809;49.594;8.734;2022-12-07T05:02:32;3.20;99.90
34574;DHT22;20809;49.594;8.734;2022-12-07T05:05:33;3.10;99.90
34574;DHT22;20809;49.594;8.734;2022-12-07T05:08:34;3.10;99.90
34574;DHT22;20809;49.594;8.734;2022-12-07T05:11:35;3.20;99.90
34574;DHT22;20809;49.594;8.734;2022-12-07T05:14:38;3.20;99.90
34574;DHT22;20809;49.594;8.734;2022-12-07T05:17:39;3.20;99.90
34574;DHT22;20809;49.594;8.734;2022-12-07T05:20:41;3.10;99.90
34574;DHT22;20809;49.594;8.734;2022-12-07T05:23:42;3.00;99.90
34574;DHT22;20809;49.594;8.734;2022-12-07T05:26:43;3.00;99.90
34574;DHT22;20809;49.594;8.734;2022-12-07T05:29:44;3.00;99.90
34574;DHT22;20809;49.594;8.734;2022-12-07T05:32:44;3.00;99.90
34574;DHT22;20809;49.594;8.734;2022-12-07T05:35:45;2.90;99.90
34574;DHT22;20809;49.594;8.734;2022-12-07T05:38:45;2.90;99.90
34574;DHT22;20809;49.594;8.734;2022-12-07T05:41:46;2.80;99.90
34574;DHT22;20809;49.594;8.734;2022-12-07T05:45:06;2.80;99.90
34574;DHT22;20809;49.594;8.734;2022-12-07T05:48:07;2.90;99.90
34574;DHT22;20809;49.594;8.734;2022-12-07T05:51:07;2.90;99.90
34574;DHT22;20809;49.594;8.734;2022-12-07T05:54:08;2.90;99.90
34574;DHT22;20809;49.594;8.734;2022-12-07T05:57:09;2.90;99.90
34574;DHT22;20809;49.594;8.734;2022-12-07T06:00:11;2.90;99.90
34574;DHT22;20809;49.594;8.734;2022-12-07T06:03:11;2.90;99.90
34574;DHT22;20809;49.594;8.734;2022-12-07T06:06:12;2.90;99.90
34574;DHT22;20809;49.594;8.734;2022-12-07T06:09:13;2.90;99.90
34574;DHT22;20809;49.594;8.734;2022-12-07T06:12:14;2.90;99.90
34574;DHT22;20809;49.594;8.734;2022-12-07T06:15:35;2.90;99.90
34574;DHT22;20809;49.594;8.734;2022-12-07T06:18:36;2.90;99.90
34574;DHT22;20809;49.594;8.734;2022-12-07T06:21:37;2.90;99.90
34574;DHT22;20809;49.594;8.734;2022-12-07T06:24:38;2.90;99.90
34574;DHT22;20809;49.594;8.734;2022-12-07T06:27:39;2.90;99.90
34574;DHT22;20809;49.594;8.734;2022-12-07T06:30:39;2.90;99.90
34574;DHT22;20809;49.594;8.734;2022-12-07T06:33:41;2.90;99.90
34574;DHT22;20809;49.594;8.734;2022-12-07T06:36:42;2.90;99.90
34574;DHT22;20809;49.594;8.734;2022-12-07T06:39:42;2.90;99.90
34574;DHT22;20809;49.594;8.734;2022-12-07T06:42:43;2.90;99.90
34574;DHT22;20809;49.594;8.734;2022-12-07T06:45:44;2.90;99.90
34574;DHT22;20809;49.594;8.734;2022-12-07T06:48:44;3.00;99.90
34574;DHT22;20809;49.594;8.734;2022-12-07T06:51:45;3.00;99.90
34574;DHT22;20809;49.594;8.734;2022-12-07T06:54:46;3.00;99.90
34574;DHT22;20809;49.594;8.734;2022-12-07T06:57:46;3.00;99.90
34574;DHT22;20809;49.594;8.734;2022-12-07T07:00:48;3.00;99.90
34574;DHT22;20809;49.594;8.734;2022-12-07T07:03:50;3.00;99.90
34574;DHT22;20809;49.594;8.734;2022-12-07T07:06:50;3.10;99.90
34574;DHT22;20809;49.594;8.734;2022-12-07T07:09:51;3.10;99.90
34574;DHT22;20809;49.594;8.734;2022-12-07T07:12:52;3.00;99.90
34574;DHT22;20809;49.594;8.734;2022-12-07T07:15:53;3.10;99.90
34574;DHT22;20809;49.594;8.734;2022-12-07T07:18:54;3.10;99.90
34574;DHT22;20809;49.594;8.734;2022-12-07T07:21:55;3.10;99.90
34574;DHT22;20809;49.594;8.734;2022-12-07T07:24:55;3.10;99.90
34574;DHT22;20809;49.594;8.734;2022-12-07T07:27:56;3.10;99.90
34574;DHT22;20809;49.594;8.734;2022-12-07T07:30:57;3.10;99.90
34574;DHT22;20809;49.594;8.734;2022-12-07T07:33:57;3.20;99.90
34574;DHT22;20809;49.594;8.734;2022-12-07T07:36:58;3.20;99.90
34574;DHT22;20809;49.594;8.734;2022-12-07T07:39:59;3.20;99.90
34574;DHT22;20809;49.594;8.734;2022-12-07T07:42:59;3.20;99.90
34574;DHT22;20809;49.594;8.734;2022-12-07T07:46:00;3.20;99.90
34574;DHT22;20809;49.594;8.734;2022-12-07T07:49:01;3.20;99.90
34574;DHT22;20809;49.594;8.734;2022-12-07T07:52:02;3.20;99.90
34574;DHT22;20809;49.594;8.734;2022-12-07T07:55:03;3.30;99.90
34574;DHT22;20809;49.594;8.734;2022-12-07T07:58:03;3.30;99.90
34574;DHT22;20809;49.594;8.734;2022-12-07T08:01:08;3.40;99.90
34574;DHT22;20809;49.594;8.734;2022-12-07T08:04:09;3.40;99.90
34574;DHT22;20809;49.594;8.734;2022-12-07T08:07:10;3.50;99.90
34574;DHT22;20809;49.594;8.734;2022-12-07T08:10:12;3.50;99.90
34574;DHT22;20809;49.594;8.734;2022-12-07T08:13:15;3.50;99.90
34574;DHT22;20809;49.594;8.734;2022-12-07T08:16:18;3.50;99.90
34574;DHT22;20809;49.594;8.734;2022-12-07T08:19:18;3.50;99.90
34574;DHT22;20809;49.594;8.734;2022-12-07T08:22:19;3.60;99.90
34574;DHT22;20809;49.594;8.734;2022-12-07T08:25:20;3.70;99.90
34574;DHT22;20809;49.594;8.734;2022-12-07T08:28:22;3.70;99.90
34574;DHT22;20809;49.594;8.734;2022-12-07T08:31:24;3.80;99.90
34574;DHT22;20809;49.594;8.734;2022-12-07T08:34:25;3.80;99.90
34574;DHT22;20809;49.594;8.734;2022-12-07T08:37:25;3.80;99.90
34574;DHT22;20809;49.594;8.734;2022-12-07T08:40:26;3.90;99.90
34574;DHT22;20809;49.594;8.734;2022-12-07T08:43:26;3.90;99.90
34574;DHT22;20809;49.594;8.734;2022-12-07T08:46:46;4.00;99.90
34574;DHT22;20809;49.594;8.734;2022-12-07T08:49:49;4.00;99.90
34574;DHT22;20809;49.594;8.734;2022-12-07T08:52:54;4.10;99.90
34574;DHT22;20809;49.594;8.734;2022-12-07T08:55:55;4.10;99.90
34574;DHT22;20809;49.594;8.734;2022-12-07T08:58:57;4.20;99.90
34574;DHT22;20809;49.594;8.734;2022-12-07T09:01:58;4.30;99.90
34574;DHT22;20809;49.594;8.734;2022-12-07T09:04:59;4.50;99.90
34574;DHT22;20809;49.594;8.734;2022-12-07T09:08:01;4.60;99.90
34574;DHT22;20809;49.594;8.734;2022-12-07T09:11:02;4.70;99.90
34574;DHT22;20809;49.594;8.734;2022-12-07T09:14:03;4.80;99.90
34574;DHT22;20809;49.594;8.734;2022-12-07T09:17:11;4.70;99.90
34574;DHT22;20809;49.594;8.734;2022-12-07T09:20:12;4.70;99.90
34574;DHT22;20809;49.594;8.734;2022-12-07T09:23:13;4.70;99.90
34574;DHT22;20809;49.594;8.734;2022-12-07T09:26:14;4.80;99.90
34574;DHT22;20809;49.594;8.734;2022-12-07T09:29:14;4.90;99.90
34574;DHT22;20809;49.594;8.734;2022-12-07T09:32:15;4.90;99.90
34574;DHT22;20809;49.594;8.734;2022-12-07T09:35:16;4.90;99.90
34574;DHT22;20809;49.594;8.734;2022-12-07T09:38:18;5.00;99.90
34574;DHT22;20809;49.594;8.734;2022-12-07T09:41:20;4.90;99.90
34574;DHT22;20809;49.594;8.734;2022-12-07T09:44:25;5.00;99.90
34574;DHT22;20809;49.594;8.734;2022-12-07T09:47:27;5.00;99.90
34574;DHT22;20809;49.594;8.734;2022-12-07T09:50:30;5.00;99.90
34574;DHT22;20809;49.594;8.734;2022-12-07T09:53:34;4.90;99.90
34574;DHT22;20809;49.594;8.734;2022-12-07T09:56:36;4.80;99.90
34574;DHT22;20809;49.594;8.734;2022-12-07T09:59:37;4.80;99.90
34574;DHT22;20809;49.594;8.734;2022-12-07T10:02:43;4.70;99.90
34574;DHT22;20809;49.594;8.734;2022-12-07T10:05:47;4.60;99.90
34574;DHT22;20809;49.594;8.734;2022-12-07T10:08:49;4.60;99.90
34574;DHT22;20809;49.594;8.734;2022-12-07T10:12:08;4.60;99.90
34574;DHT22;20809;49.594;8.734;2022-12-07T10:15:09;4.60;99.90
34574;DHT22;20809;49.594;8.734;2022-12-07T10:18:27;4.70;99.90
34574;DHT22;20809;49.594;8.734;2022-12-07T10:21:29;4.70;99.90
34574;DHT22;20809;49.594;8.734;2022-12-07T10:24:29;4.80;99.90
34574;DHT22;20809;49.594;8.734;2022-12-07T10:27:31;4.90;99.90
34574;DHT22;20809;49.594;8.734;2022-12-07T10:30:33;5.00;99.90
34574;DHT22;20809;49.594;8.734;2022-12-07T10:36:54;5.10;99.90
34574;DHT22;20809;49.594;8.734;2022-12-07T10:43:27;5.20;99.90
34574;DHT22;20809;49.594;8.734;2022-12-07T10:53:20;5.40;99.90
34574;DHT22;20809;49.594;8.734;2022-12-07T10:59:34;5.40;99.90
34574;DHT22;20809;49.594;8.734;2022-12-07T11:06:13;5.20;99.90
34574;DHT22;20809;49.594;8.734;2022-12-07T11:16:38;5.00;99.90
34574;DHT22;20809;49.594;8.734;2022-12-07T11:19:49;5.00;99.90
34574;DHT22;20809;49.594;8.734;2022-12-07T11:32:55;5.00;99.90
34574;DHT22;20809;49.594;8.734;2022-12-07T11:39:33;5.20;99.90
34574;DHT22;20809;49.594;8.734;2022-12-07T11:42:38;5.40;99.90
34574;DHT22;20809;49.594;8.734;2022-12-07T11:45:43;5.50;99.90
34574;DHT22;20809;49.594;8.734;2022-12-07T11:49:02;5.70;99.90
34574;DHT22;20809;49.594;8.734;2022-12-07T11:52:06;5.90;99.90
34574;DHT22;20809;49.594;8.734;2022-12-07T11:55:30;6.20;99.90
34574;DHT22;20809;49.594;8.734;2022-12-07T12:02:10;7.10;99.90
34574;DHT22;20809;49.594;8.734;2022-12-07T12:05:19;7.30;99.90
34574;DHT22;20809;49.594;8.734;2022-12-07T12:08:28;7.20;99.90
34574;DHT22;20809;49.594;8.734;2022-12-07T12:15:23;6.90;99.90
34574;DHT22;20809;49.594;8.734;2022-12-07T12:18:53;6.50;99.90
34574;DHT22;20809;49.594;8.734;2022-12-07T12:22:15;6.10;99.90
34574;DHT22;20809;49.594;8.734;2022-12-07T12:25:31;6.20;99.90
34574;DHT22;20809;49.594;8.734;2022-12-07T12:28:50;6.30;99.90
34574;DHT22;20809;49.594;8.734;2022-12-07T12:32:20;6.30;99.90
34574;DHT22;20809;49.594;8.734;2022-12-07T12:35:34;6.40;99.90
34574;DHT22;20809;49.594;8.734;2022-12-07T12:38:49;6.50;99.90
34574;DHT22;20809;49.594;8.734;2022-12-07T12:41:53;6.40;99.90
34574;DHT22;20809;49.594;8.734;2022-12-07T12:45:19;6.40;99.90
34574;DHT22;20809;49.594;8.734;2022-12-07T12:48:35;6.30;99.90
34574;DHT22;20809;49.594;8.734;2022-12-07T12:51:38;6.20;99.90
34574;DHT22;20809;49.594;8.734;2022-12-07T13:04:34;6.00;99.90
34574;DHT22;20809;49.594;8.734;2022-12-07T13:07:49;5.90;99.90
34574;DHT22;20809;49.594;8.734;2022-12-07T13:10:51;5.80;99.90
34574;DHT22;20809;49.594;8.734;2022-12-07T13:13:52;5.70;99.90
34574;DHT22;20809;49.594;8.734;2022-12-07T13:16:52;5.70;99.90
34574;DHT22;20809;49.594;8.734;2022-12-07T13:19:54;5.70;99.90
34574;DHT22;20809;49.594;8.734;2022-12-07T13:22:58;5.60;99.90
34574;DHT22;20809;49.594;8.734;2022-12-07T13:32:23;5.60;99.90
34574;DHT22;20809;49.594;8.734;2022-12-07T13:35:36;5.60;99.90
34574;DHT22;20809;49.594;8.734;2022-12-07T13:38:52;5.60;99.90
34574;DHT22;20809;49.594;8.734;2022-12-07T13:41:55;5.60;99.90
34574;DHT22;20809;49.594;8.734;2022-12-07T13:44:59;5.60;99.90
34574;DHT22;20809;49.594;8.734;2022-12-07T13:48:00;5.50;99.90
34574;DHT22;20809;49.594;8.734;2022-12-07T13:51:03;5.50;99.90
34574;DHT22;20809;49.594;8.734;2022-12-07T13:54:11;5.50;99.90
34574;DHT22;20809;49.594;8.734;2022-12-07T13:57:12;5.50;99.90
34574;DHT22;20809;49.594;8.734;2022-12-07T14:00:27;5.60;99.90
34574;DHT22;20809;49.594;8.734;2022-12-07T14:03:34;5.70;99.90
34574;DHT22;20809;49.594;8.734;2022-12-07T14:06:36;5.60;99.90
34574;DHT22;20809;49.594;8.734;2022-12-07T14:09:55;5.50;99.90
34574;DHT22;20809;49.594;8.734;2022-12-07T14:12:57;5.50;99.90
34574;DHT22;20809;49.594;8.734;2022-12-07T14:15:58;5.50;99.90
34574;DHT22;20809;49.594;8.734;2022-12-07T14:19:00;5.40;99.90
34574;DHT22;20809;49.594;8.734;2022-12-07T14:22:08;5.30;99.90
34574;DHT22;20809;49.594;8.734;2022-12-07T14:25:17;5.30;99.90
34574;DHT22;20809;49.594;8.734;2022-12-07T14:28:30;5.20;99.90
34574;DHT22;20809;49.594;8.734;2022-12-07T14:31:32;5.20;99.90
34574;DHT22;20809;49.594;8.734;2022-12-07T14:34:32;5.20;99.90
34574;DHT22;20809;49.594;8.734;2022-12-07T14:37:33;5.20;99.90
34574;DHT22;20809;49.594;8.734;2022-12-07T14:40:34;5.10;99.90
34574;DHT22;20809;49.594;8.734;2022-12-07T14:43:34;5.20;99.90
34574;DHT22;20809;49.594;8.734;2022-12-07T14:46:35;5.10;99.90
34574;DHT22;20809;49.594;8.734;2022-12-07T14:49:36;5.10;99.90
34574;DHT22;20809;49.594;8.734;2022-12-07T14:52:37;5.10;99.90
34574;DHT22;20809;49.594;8.734;2022-12-07T14:55:38;5.10;99.90
34574;DHT22;20809;49.594;8.734;2022-12-07T14:58:40;5.00;99.90
34574;DHT22;20809;49.594;8.734;2022-12-07T15:01:40;4.90;99.90
34574;DHT22;20809;49.594;8.734;2022-12-07T15:04:41;4.80;99.90
34574;DHT22;20809;49.594;8.734;2022-12-07T15:07:42;4.80;99.90
34574;DHT22;20809;49.594;8.734;2022-12-07T15:10:43;4.70;99.90
34574;DHT22;20809;49.594;8.734;2022-12-07T15:13:44;4.60;99.90
34574;DHT22;20809;49.594;8.734;2022-12-07T15:17:04;4.60;99.90
34574;DHT22;20809;49.594;8.734;2022-12-07T15:20:05;4.50;99.90
34574;DHT22;20809;49.594;8.734;2022-12-07T15:23:06;4.40;99.90
34574;DHT22;20809;49.594;8.734;2022-12-07T15:26:07;4.30;99.90
34574;DHT22;20809;49.594;8.734;2022-12-07T15:29:09;4.10;99.90
34574;DHT22;20809;49.594;8.734;2022-12-07T15:32:10;4.10;99.90
34574;DHT22;20809;49.594;8.734;2022-12-07T15:35:10;4.10;99.90
34574;DHT22;20809;49.594;8.734;2022-12-07T15:38:11;4.20;99.90
34574;DHT22;20809;49.594;8.734;2022-12-07T15:41:12;4.20;99.90
34574;DHT22;20809;49.594;8.734;2022-12-07T15:44:13;4.20;99.90
34574;DHT22;20809;49.594;8.734;2022-12-07T15:47:43;4.30;99.90
34574;DHT22;20809;49.594;8.734;2022-12-07T15:50:44;4.40;99.90
34574;DHT22;20809;49.594;8.734;2022-12-07T15:53:45;4.30;99.90
34574;DHT22;20809;49.594;8.734;2022-12-07T15:56:46;4.40;99.90
34574;DHT22;20809;49.594;8.734;2022-12-07T15:59:46;4.30;99.90
34574;DHT22;20809;49.594;8.734;2022-12-07T16:02:47;4.30;99.90
34574;DHT22;20809;49.594;8.734;2022-12-07T16:05:51;4.30;99.90
34574;DHT22;20809;49.594;8.734;2022-12-07T16:08:53;4.30;99.90
34574;DHT22;20809;49.594;8.734;2022-12-07T16:11:54;4.20;99.90
34574;DHT22;20809;49.594;8.734;2022-12-07T16:14:55;4.30;99.90
34574;DHT22;20809;49.594;8.734;2022-12-07T16:17:56;4.30;99.90
34574;DHT22;20809;49.594;8.734;2022-12-07T16:20:57;4.30;99.90
34574;DHT22;20809;49.594;8.734;2022-12-07T16:23:58;4.30;99.90
34574;DHT22;20809;49.594;8.734;2022-12-07T16:26:59;4.30;99.90
34574;DHT22;20809;49.594;8.734;2022-12-07T16:30:00;4.30;99.90
34574;DHT22;20809;49.594;8.734;2022-12-07T16:33:00;4.30;99.90
34574;DHT22;20809;49.594;8.734;2022-12-07T16:36:02;4.30;99.90
34574;DHT22;20809;49.594;8.734;2022-12-07T16:39:04;4.30;99.90
34574;DHT22;20809;49.594;8.734;2022-12-07T16:42:05;4.30;99.90
34574;DHT22;20809;49.594;8.734;2022-12-07T16:45:06;4.30;99.90
34574;DHT22;20809;49.594;8.734;2022-12-07T16:48:07;4.30;99.90
34574;DHT22;20809;49.594;8.734;2022-12-07T16:51:11;4.30;99.90
34574;DHT22;20809;49.594;8.734;2022-12-07T16:54:12;4.30;99.90
34574;DHT22;20809;49.594;8.734;2022-12-07T16:57:13;4.30;99.90
34574;DHT22;20809;49.594;8.734;2022-12-07T17:00:14;4.30;99.90
34574;DHT22;20809;49.594;8.734;2022-12-07T17:03:14;4.30;99.90
34574;DHT22;20809;49.594;8.734;2022-12-07T17:06:20;4.40;99.90
34574;DHT22;20809;49.594;8.734;2022-12-07T17:09:21;4.30;99.90
34574;DHT22;20809;49.594;8.734;2022-12-07T17:12:21;4.30;99.90
34574;DHT22;20809;49.594;8.734;2022-12-07T17:15:22;4.30;99.90
34574;DHT22;20809;49.594;8.734;2022-12-07T17:18:23;4.30;99.90
34574;DHT22;20809;49.594;8.734;2022-12-07T17:21:24;4.30;99.90
34574;DHT22;20809;49.594;8.734;2022-12-07T17:24:24;4.30;99.90
34574;DHT22;20809;49.594;8.734;2022-12-07T17:27:25;4.30;99.90
34574;DHT22;20809;49.594;8.734;2022-12-07T17:30:26;4.30;99.90
34574;DHT22;20809;49.594;8.734;2022-12-07T17:33:26;4.30;99.90
34574;DHT22;20809;49.594;8.734;2022-12-07T17:36:29;4.40;99.90
34574;DHT22;20809;49.594;8.734;2022-12-07T17:39:30;4.40;99.90
34574;DHT22;20809;49.594;8.734;2022-12-07T17:42:31;4.40;99.90
34574;DHT22;20809;49.594;8.734;2022-12-07T17:45:39;4.30;99.90
34574;DHT22;20809;49.594;8.734;2022-12-07T17:48:40;4.30;99.90
34574;DHT22;20809;49.594;8.734;2022-12-07T17:51:42;4.30;99.90
34574;DHT22;20809;49.594;8.734;2022-12-07T17:55:01;4.30;99.90
34574;DHT22;20809;49.594;8.734;2022-12-07T17:58:02;4.30;99.90
34574;DHT22;20809;49.594;8.734;2022-12-07T18:01:07;4.30;99.90
34574;DHT22;20809;49.594;8.734;2022-12-07T18:04:09;4.30;99.90
34574;DHT22;20809;49.594;8.734;2022-12-07T18:07:10;4.20;99.90
34574;DHT22;20809;49.594;8.734;2022-12-07T18:10:11;4.20;99.90
34574;DHT22;20809;49.594;8.734;2022-12-07T18:13:11;4.10;99.90
34574;DHT22;20809;49.594;8.734;2022-12-07T18:16:32;4.10;99.90
34574;DHT22;20809;49.594;8.734;2022-12-07T18:19:34;4.10;99.90
34574;DHT22;20809;49.594;8.734;2022-12-07T18:22:36;4.10;99.90
34574;DHT22;20809;49.594;8.734;2022-12-07T18:25:39;4.00;99.90
34574;DHT22;20809;49.594;8.734;2022-12-07T18:28:44;4.00;99.90
34574;DHT22;20809;49.594;8.734;2022-12-07T18:31:45;4.00;99.90
34574;DHT22;20809;49.594;8.734;2022-12-07T18:34:46;4.10;99.90
34574;DHT22;20809;49.594;8.734;2022-12-07T18:37:47;4.00;99.90
34574;DHT22;20809;49.594;8.734;2022-12-07T18:40:48;4.00;99.90
34574;DHT22;20809;49.594;8.734;2022-12-07T18:43:48;4.00;99.90
34574;DHT22;20809;49.594;8.734;2022-12-07T18:46:49;4.00;99.90
34574;DHT22;20809;49.594;8.734;2022-12-07T18:49:50;4.00;99.90
34574;DHT22;20809;49.594;8.734;2022-12-07T18:52:50;4.00;99.90
34574;DHT22;20809;49.594;8.734;2022-12-07T18:56:02;4.00;99.90
34574;DHT22;20809;49.594;8.734;2022-12-07T18:59:04;3.90;99.90
34574;DHT22;20809;49.594;8.734;2022-12-07T19:02:24;3.90;99.90
34574;DHT22;20809;49.594;8.734;2022-12-07T19:05:25;3.90;99.90
34574;DHT22;20809;49.594;8.734;2022-12-07T19:08:26;3.90;99.90
34574;DHT22;20809;49.594;8.734;2022-12-07T19:11:29;3.90;99.90
34574;DHT22;20809;49.594;8.734;2022-12-07T19:14:48;3.90;99.90
34574;DHT22;20809;49.594;8.734;2022-12-07T19:17:49;3.90;99.90
34574;DHT22;20809;49.594;8.734;2022-12-07T19:20:52;3.80;99.90
34574;DHT22;20809;49.594;8.734;2022-12-07T19:23:53;3.80;99.90
34574;DHT22;20809;49.594;8.734;2022-12-07T19:26:54;3.70;99.90
34574;DHT22;20809;49.594;8.734;2022-12-07T19:29:55;3.80;99.90
34574;DHT22;20809;49.594;8.734;2022-12-07T19:32:56;3.80;99.90
34574;DHT22;20809;49.594;8.734;2022-12-07T19:35:57;3.70;99.90
34574;DHT22;20809;49.594;8.734;2022-12-07T19:38:57;3.70;99.90
34574;DHT22;20809;49.594;8.734;2022-12-07T19:41:58;3.70;99.90
34574;DHT22;20809;49.594;8.734;2022-12-07T19:44:59;3.70;99.90
34574;DHT22;20809;49.594;8.734;2022-12-07T19:47:59;3.60;99.90
34574;DHT22;20809;49.594;8.734;2022-12-07T19:51:04;3.60;99.90
34574;DHT22;20809;49.594;8.734;2022-12-07T19:54:04;3.60;99.90
34574;DHT22;20809;49.594;8.734;2022-12-07T19:57:06;3.60;99.90
34574;DHT22;20809;49.594;8.734;2022-12-07T20:00:08;3.60;99.90
34574;DHT22;20809;49.594;8.734;2022-12-07T20:03:08;3.60;99.90
34574;DHT22;20809;49.594;8.734;2022-12-07T20:06:14;3.50;99.90
34574;DHT22;20809;49.594;8.734;2022-12-07T20:09:16;3.60;99.90
34574;DHT22;20809;49.594;8.734;2022-12-07T20:12:17;3.50;99.90
34574;DHT22;20809;49.594;8.734;2022-12-07T20:15:37;3.50;99.90
34574;DHT22;20809;49.594;8.734;2022-12-07T20:18:38;3.50;99.90
34574;DHT22;20809;49.594;8.734;2022-12-07T20:21:39;3.50;99.90
34574;DHT22;20809;49.594;8.734;2022-12-07T20:24:39;3.40;99.90
34574;DHT22;20809;49.594;8.734;2022-12-07T20:27:40;3.40;99.90
34574;DHT22;20809;49.594;8.734;2022-12-07T20:30:51;3.40;99.90
34574;DHT22;20809;49.594;8.734;2022-12-07T20:33:52;3.40;99.90
34574;DHT22;20809;49.594;8.734;2022-12-07T20:36:53;3.50;99.90
34574;DHT22;20809;49.594;8.734;2022-12-07T20:39:54;3.50;99.90
34574;DHT22;20809;49.594;8.734;2022-12-07T20:42:55;3.50;99.90
34574;DHT22;20809;49.594;8.734;2022-12-07T20:45:56;3.40;99.90
34574;DHT22;20809;49.594;8.734;2022-12-07T20:48:58;3.50;99.90
34574;DHT22;20809;49.594;8.734;2022-12-07T20:52:00;3.50;99.90
34574;DHT22;20809;49.594;8.734;2022-12-07T20:55:01;3.50;99.90
34574;DHT22;20809;49.594;8.734;2022-12-07T20:58:01;3.50;99.90
34574;DHT22;20809;49.594;8.734;2022-12-07T21:01:03;3.50;99.90
34574;DHT22;20809;49.594;8.734;2022-12-07T21:04:03;3.50;99.90
34574;DHT22;20809;49.594;8.734;2022-12-07T21:07:04;3.60;99.90
34574;DHT22;20809;49.594;8.734;2022-12-07T21:10:05;3.60;99.90
34574;DHT22;20809;49.594;8.734;2022-12-07T21:13:06;3.50;99.90
34574;DHT22;20809;49.594;8.734;2022-12-07T21:16:12;3.50;99.90
34574;DHT22;20809;49.594;8.734;2022-12-07T21:19:13;3.50;99.90
34574;DHT22;20809;49.594;8.734;2022-12-07T21:22:14;3.50;99.90
34574;DHT22;20809;49.594;8.734;2022-12-07T21:25:14;3.50;99.90
34574;DHT22;20809;49.594;8.734;2022-12-07T21:28:15;3.50;99.90